Time;durP1;ratioP1;P1;durP2;ratioP2;P2;SDS_P1;SDS_P2;PMS_P1;PMS_P2;Temp;Humidity;BMP_temperature;BMP_pressure;BME280_temperature;BME280_humidity;BME280_pressure;Samples;Min_cycle;Max_cycle;Signal;HPM_P1;HPM_P2
2022/02/23 00:00:11;;;;;;;;;;;;;;;;;;350109;28;900;-76
2022/02/23 00:00:21;;;;;;;;;;;;;;;;;;350079;28;960;-76
2022/02/23 00:00:31;;;;;;;;;;;;;;;;;;350212;28;798;-76
2022/02/23 00:00:42;;;;;;;;;;;;;;;;;;350131;28;932;-76
2022/02/23 00:00:52;;;;;;;;;;;;;;;;;;350092;28;792;-76
2022/02/23 00:01:02;;;;;;;;;;;;;;;;;;350091;28;920;-76
2022/02/23 00:01:12;;;;;;;;;;;;;;;;;;350158;28;912;-76
2022/02/23 00:01:23;;;;;;;;;;;;;;;;;;349997;28;988;-76
2022/02/23 00:01:33;;;;;;;;;;;;;;;;;;350108;28;963;-76
2022/02/23 00:01:43;;;;;;;;;;;;;;;;;;350161;28;984;-76
2022/02/23 00:01:55;;;;;;;;;;;;;;;;;;350095;28;825;-76
2022/02/23 00:02:05;;;;;;;;;;;;;;;;;;350073;28;939;-76
2022/02/23 00:02:15;;;;;;;;;;;;;;;;;;350178;28;845;-76
2022/02/23 00:02:25;;;;;;;;;;;;;;;;;;350092;28;824;-76
2022/02/23 00:02:35;;;;;;;;;;;;;;;;;;350148;28;889;-76
2022/02/23 00:02:46;;;;;;;;;;;;;;;;;;350118;28;936;-77
2022/02/23 00:02:57;;;;;;;;;;;;;;;;;;349778;28;1859;-76
2022/02/23 00:03:07;;;;;;;;;;;;;;;;;;348992;28;1828;-76
2022/02/23 00:03:17;;;;;;;;;;;;;;;;;;348705;28;936;-76
2022/02/23 00:03:27;;;;;;;;;;;;;;;;;;348675;28;967;-76
2022/02/23 00:03:38;;;;;;;;;;;;;;;;;;348681;28;868;-76
2022/02/23 00:03:48;;;;;;;;;;;;;;;;;;348738;28;956;-76
2022/02/23 00:03:59;;;;;;;;;;;;;;;;;;348679;28;933;-76
2022/02/23 00:04:09;;;;;;;;;;;;;;;;;;348720;28;853;-76
2022/02/23 00:04:20;;;;;;;;;;;;;;;;;;349110;28;1317;-75
2022/02/23 00:04:30;;;;;;;;;;;;;;;;;;350132;28;904;-76
2022/02/23 00:04:40;;;;;;;;;;;;;;;;;;350135;28;974;-76
2022/02/23 00:04:50;;;;;;;;;;;;;;;;;;350102;28;813;-76
2022/02/23 00:05:01;;;;;;;;;;;;;;;;;;349436;28;1874;-76
2022/02/23 00:05:11;;;;;;;;;;;;;;;;;;348856;28;1867;-75
2022/02/23 00:05:21;;;;;;;;;;;;;;;;;;350110;28;971;-76
2022/02/23 00:05:32;;;;;;;;;;;;;;;;;;350117;28;916;-76
2022/02/23 00:05:42;;;;;;;;;;;;;;;;;;350057;28;1054;-76
2022/02/23 00:05:52;;;;;;;;;;;;;;;;;;350148;28;797;-76
2022/02/23 00:06:02;;;;;;;;;;;;;;;;;;350162;28;850;-76
2022/02/23 00:06:13;;;;;;;;;;;;;;;;;;350053;28;921;-76
2022/02/23 00:06:23;;;;;;;;;;;;;;;;;;348729;28;1451;-76
2022/02/23 00:06:33;;;;;;;;;;;;;;;;;;349756;28;1433;-76
2022/02/23 00:06:43;;;;;;;;;;;;;;;;;;349594;28;1411;-75
2022/02/23 00:06:54;;;;;;;;;;;;;;;;;;349896;28;1437;-76
2022/02/23 00:07:04;;;;;;;;;;;;;;;;;;350111;28;932;-76
2022/02/23 00:07:14;;;;;;;;;;;;;;;;;;350076;28;928;-76
2022/02/23 00:07:24;;;;;;;;;;;;;;;;;;349815;28;1273;-76
2022/02/23 00:07:35;;;;;;;;;;;;;;;;;;350004;28;1414;-76
2022/02/23 00:07:45;;;;;;;;;;;;;;;;;;350015;28;1029;-75
2022/02/23 00:07:55;;;;;;;;;;;;;;;;;;350126;28;944;-76
2022/02/23 00:08:05;;;;;;;;;;;;;;;;;;350089;28;948;-76
2022/02/23 00:08:15;;;;;;;;;;;;;;;;;;350025;28;790;-76
2022/02/23 00:08:26;;;;;;;;;;;;;;;;;;348974;28;1730;-76
2022/02/23 00:08:36;;;;;;;;;;;;;;;;;;348735;28;963;-76
2022/02/23 00:08:46;;;;;;;;;;;;;;;;;;348743;28;778;-76
2022/02/23 00:08:56;;;;;;;;;;;;;;;;;;348729;28;873;-76
2022/02/23 00:09:06;;;;;;;;;;;;;;;;;;348681;28;1123;-76
2022/02/23 00:09:17;;;;;;;;;;;;;;;;;;348710;28;988;-76
2022/02/23 00:09:27;;;;;;;;;;;;;;;;;;348754;28;905;-76
2022/02/23 00:09:37;;;;;;;;;;;;;;;;;;348738;28;925;-76
2022/02/23 00:09:47;;;;;;;;;;;;;;;;;;348673;28;983;-76
2022/02/23 00:09:58;;;;;;;;;;;;;;;;;;348707;28;817;-76
2022/02/23 00:10:09;;;;;;;;;;;;;;;;;;348742;28;939;-76
2022/02/23 00:10:19;;;;;;;;;;;;;;;;;;348645;28;1973;-75
2022/02/23 00:10:30;;;;;;;;;;;;;;;;;;349699;28;1612;-76
2022/02/23 00:10:40;;;;;;;;;;;;;;;;;;350012;28;1536;-75
2022/02/23 00:10:51;;;;;;;;;;;;;;;;;;350104;28;1039;-76
2022/02/23 00:11:01;;;;;;;;;;;;;;;;;;350071;28;1965;-76
2022/02/23 00:11:11;;;;;;;;;;;;;;;;;;350133;28;936;-76
2022/02/23 00:11:22;;;;;;;;;;;;;;;;;;349956;28;1039;-76
2022/02/23 00:11:32;;;;;;;;;;;;;;;;;;350086;28;952;-76
2022/02/23 00:11:42;;;;;;;;;;;;;;;;;;350114;28;861;-76
2022/02/23 00:11:53;;;;;;;;;;;;;;;;;;350053;28;966;-76
2022/02/23 00:12:03;;;;;;;;;;;;;;;;;;350074;28;976;-76
2022/02/23 00:12:13;;;;;;;;;;;;;;;;;;349980;28;988;-76
2022/02/23 00:12:23;;;;;;;;;;;;;;;;;;348681;28;1824;-76
2022/02/23 00:12:34;;;;;;;;;;;;;;;;;;348758;28;908;-76
2022/02/23 00:12:44;;;;;;;;;;;;;;;;;;348767;28;896;-76
2022/02/23 00:12:54;;;;;;;;;;;;;;;;;;348967;28;1491;-76
2022/02/23 00:13:04;;;;;;;;;;;;;;;;;;350027;28;917;-76
2022/02/23 00:13:15;;;;;;;;;;;;;;;;;;350112;28;837;-76
2022/02/23 00:13:26;;;;;;;;;;;;;;;;;;350113;28;849;-76
2022/02/23 00:13:37;;;;;;;;;;;;;;;;;;350066;28;980;-76
2022/02/23 00:13:48;;;;;;;;;;;;;;;;;;350059;28;920;-76
2022/02/23 00:13:58;;;;;;;;;;;;;;;;;;350062;28;845;-76
2022/02/23 00:14:08;;;;;;;;;;;;;;;;;;350123;28;810;-76
2022/02/23 00:14:21;;;;;;;;;;;;;;;;;;349522;28;1891;-76
2022/02/23 00:14:32;;;;;;;;;;;;;;;;;;349740;28;1425;-76
2022/02/23 00:14:42;;;;;;;;;;;;;;;;;;350109;28;913;-76
2022/02/23 00:14:52;;;;;;;;;;;;;;;;;;350160;28;793;-76
2022/02/23 00:15:03;;;;;;;;;;;;;;;;;;350033;28;917;-76
2022/02/23 00:15:13;;;;;;;;;;;;;;;;;;350096;28;956;-76
2022/02/23 00:15:23;;;;;;;;;;;;;;;;;;350089;28;1162;-76
2022/02/23 00:15:34;;;;;;;;;;;;;;;;;;350009;28;1008;-76
2022/02/23 00:15:44;;;;;;;;;;;;;;;;;;350085;28;929;-76
2022/02/23 00:15:54;;;;;;;;;;;;;;;;;;350124;28;1648;-76
2022/02/23 00:16:05;;;;;;;;;;;;;;;;;;349990;28;937;-76
2022/02/23 00:16:15;;;;;;;;;;;;;;;;;;350106;28;885;-76
2022/02/23 00:16:26;;;;;;;;;;;;;;;;;;349308;28;1839;-76
2022/02/23 00:16:36;;;;;;;;;;;;;;;;;;349756;28;1472;-76
2022/02/23 00:16:46;;;;;;;;;;;;;;;;;;349980;28;1437;-76
2022/02/23 00:16:56;;;;;;;;;;;;;;;;;;350062;28;1468;-76
2022/02/23 00:17:06;;;;;;;;;;;;;;;;;;349982;28;1592;-76
2022/02/23 00:17:17;;;;;;;;;;;;;;;;;;350121;28;1779;-76
2022/02/23 00:17:27;;;;;;;;;;;;;;;;;;350116;28;1620;-76
2022/02/23 00:17:37;;;;;;;;;;;;;;;;;;349852;28;1822;-76
2022/02/23 00:17:48;;;;;;;;;;;;;;;;;;350075;28;925;-76
2022/02/23 00:17:58;;;;;;;;;;;;;;;;;;350111;28;928;-76
2022/02/23 00:18:12;;;;;;;;;;;;;;;;;;350020;28;849;-76
2022/02/23 00:18:23;;;;;;;;;;;;;;;;;;350036;28;913;-76
2022/02/23 00:18:33;;;;;;;;;;;;;;;;;;350077;28;907;-76
2022/02/23 00:18:43;;;;;;;;;;;;;;;;;;350059;28;917;-76
2022/02/23 00:18:53;;;;;;;;;;;;;;;;;;350102;28;936;-76
2022/02/23 00:19:03;;;;;;;;;;;;;;;;;;350117;28;888;-76
2022/02/23 00:19:14;;;;;;;;;;;;;;;;;;350022;28;765;-76
2022/02/23 00:19:24;;;;;;;;;;;;;;;;;;349730;28;1899;-76
2022/02/23 00:19:34;;;;;;;;;;;;;;;;;;348760;28;838;-76
2022/02/23 00:19:44;;;;;;;;;;;;;;;;;;348680;28;1020;-76
2022/02/23 00:19:55;;;;;;;;;;;;;;;;;;348678;28;953;-76
2022/02/23 00:20:06;;;;;;;;;;;;;;;;;;348676;28;1008;-76
2022/02/23 00:20:16;;;;;;;;;;;;;;;;;;348767;28;813;-76
2022/02/23 00:20:26;;;;;;;;;;;;;;;;;;348728;28;1640;-76
2022/02/23 00:20:37;;;;;;;;;;;;;;;;;;348627;28;964;-76
2022/02/23 00:20:47;;;;;;;;;;;;;;;;;;348720;28;865;-76
2022/02/23 00:20:57;;;;;;;;;;;;;;;;;;348713;28;932;-76
2022/02/23 00:21:08;;;;;;;;;;;;;;;;;;348742;28;995;-76
2022/02/23 00:21:18;;;;;;;;;;;;;;;;;;348701;28;913;-76
2022/02/23 00:21:28;;;;;;;;;;;;;;;;;;348657;28;1918;-76
2022/02/23 00:21:39;;;;;;;;;;;;;;;;;;348687;28;991;-76
2022/02/23 00:21:49;;;;;;;;;;;;;;;;;;348774;28;809;-76
2022/02/23 00:21:59;;;;;;;;;;;;;;;;;;348699;28;975;-76
2022/02/23 00:22:09;;;;;;;;;;;;;;;;;;348699;28;925;-76
2022/02/23 00:22:20;;;;;;;;;;;;;;;;;;348660;28;932;-76
2022/02/23 00:22:32;;;;;;;;;;;;;;;;;;348634;28;1052;-76
2022/02/23 00:22:43;;;;;;;;;;;;;;;;;;348723;28;1175;-76
2022/02/23 00:22:53;;;;;;;;;;;;;;;;;;348726;28;849;-76
2022/02/23 00:23:03;;;;;;;;;;;;;;;;;;348736;28;933;-76
2022/02/23 00:23:14;;;;;;;;;;;;;;;;;;348695;28;906;-76
2022/02/23 00:23:24;;;;;;;;;;;;;;;;;;348690;28;953;-76
2022/02/23 00:23:35;;;;;;;;;;;;;;;;;;348632;28;1891;-76
2022/02/23 00:23:45;;;;;;;;;;;;;;;;;;348705;28;976;-76
2022/02/23 00:23:55;;;;;;;;;;;;;;;;;;348667;28;936;-76
2022/02/23 00:24:05;;;;;;;;;;;;;;;;;;348718;28;774;-76
2022/02/23 00:24:16;;;;;;;;;;;;;;;;;;348683;28;999;-76
2022/02/23 00:24:26;;;;;;;;;;;;;;;;;;348664;28;920;-76
2022/02/23 00:24:36;;;;;;;;;;;;;;;;;;348660;28;995;-76
2022/02/23 00:24:47;;;;;;;;;;;;;;;;;;348712;28;873;-76
2022/02/23 00:24:57;;;;;;;;;;;;;;;;;;348797;28;834;-76
2022/02/23 00:25:08;;;;;;;;;;;;;;;;;;348661;28;1337;-76
2022/02/23 00:25:18;;;;;;;;;;;;;;;;;;348710;28;880;-76
2022/02/23 00:25:28;;;;;;;;;;;;;;;;;;348761;28;1027;-76
2022/02/23 00:25:39;;;;;;;;;;;;;;;;;;348636;28;896;-76
2022/02/23 00:25:50;;;;;;;;;;;;;;;;;;348697;28;936;-76
2022/02/23 00:26:00;;;;;;;;;;;;;;;;;;348681;28;1902;-76
2022/02/23 00:26:11;;;;;;;;;;;;;;;;;;348617;28;1795;-76
2022/02/23 00:26:21;;;;;;;;;;;;;;;;;;348725;28;979;-76
2022/02/23 00:26:34;;;;;;;;;;;;;;;;;;348659;28;897;-76
2022/02/23 00:26:44;;;;;;;;;;;;;;;;;;348684;28;1051;-76
2022/02/23 00:26:55;;;;;;;;;;;;;;;;;;348693;28;1173;-76
2022/02/23 00:27:05;;;;;;;;;;;;;;;;;;348748;28;833;-76
2022/02/23 00:27:15;;;;;;;;;;;;;;;;;;348701;28;1048;-76
2022/02/23 00:27:26;;;;;;;;;;;;;;;;;;348671;28;928;-76
2022/02/23 00:27:36;;;;;;;;;;;;;;;;;;348672;28;921;-76
2022/02/23 00:27:46;;;;;;;;;;;;;;;;;;350123;28;1389;-75
2022/02/23 00:27:56;;;;;;;;;;;;;;;;;;351477;28;975;-76
2022/02/23 00:28:07;;;;;;;;;;;;;;;;;;351528;28;774;-76
2022/02/23 00:28:17;;;;;;;;;;;;;;;;;;351443;28;916;-76
2022/02/23 00:28:27;;;;;;;;;;;;;;;;;;351243;28;1760;-76
2022/02/23 00:28:37;;;;;;;;;;;;;;;;;;348460;28;1772;-76
2022/02/23 00:28:48;;;;;;;;;;;;;;;;;;348743;28;861;-76
2022/02/23 00:28:58;;;;;;;;;;;;;;;;;;348703;28;928;-76
2022/02/23 00:29:08;;;;;;;;;;;;;;;;;;348654;28;904;-76
2022/02/23 00:29:18;;;;;;;;;;;;;;;;;;348698;28;1006;-76
2022/02/23 00:29:28;;;;;;;;;;;;;;;;;;348689;28;1057;-76
2022/02/23 00:29:39;;;;;;;;;;;;;;;;;;348675;28;921;-76
2022/02/23 00:29:50;;;;;;;;;;;;;;;;;;348668;28;1836;-75
2022/02/23 00:30:00;;;;;;;;;;;;;;;;;;348628;28;983;-76
2022/02/23 00:30:10;;;;;;;;;;;;;;;;;;348683;28;971;-76
2022/02/23 00:30:21;;;;;;;;;;;;;;;;;;348685;28;885;-76
2022/02/23 00:30:31;;;;;;;;;;;;;;;;;;348591;28;956;-76
2022/02/23 00:30:41;;;;;;;;;;;;;;;;;;348678;28;779;-76
2022/02/23 00:30:51;;;;;;;;;;;;;;;;;;348700;28;897;-76
2022/02/23 00:31:02;;;;;;;;;;;;;;;;;;348618;28;1975;-76
2022/02/23 00:31:12;;;;;;;;;;;;;;;;;;348719;28;909;-76
2022/02/23 00:31:22;;;;;;;;;;;;;;;;;;348684;28;905;-76
2022/02/23 00:31:32;;;;;;;;;;;;;;;;;;348675;28;917;-76
2022/02/23 00:31:43;;;;;;;;;;;;;;;;;;348657;28;972;-76
2022/02/23 00:31:53;;;;;;;;;;;;;;;;;;348666;28;1071;-76
2022/02/23 00:32:03;;;;;;;;;;;;;;;;;;348826;28;1543;-76
2022/02/23 00:32:14;;;;;;;;;;;;;;;;;;351041;28;1420;-76
2022/02/23 00:32:24;;;;;;;;;;;;;;;;;;351488;28;909;-76
2022/02/23 00:32:34;;;;;;;;;;;;;;;;;;351468;28;956;-76
2022/02/23 00:32:44;;;;;;;;;;;;;;;;;;351431;28;825;-76
2022/02/23 00:32:55;;;;;;;;;;;;;;;;;;351474;28;979;-76
2022/02/23 00:33:05;;;;;;;;;;;;;;;;;;351481;28;884;-76
2022/02/23 00:33:15;;;;;;;;;;;;;;;;;;351458;28;913;-76
2022/02/23 00:33:25;;;;;;;;;;;;;;;;;;351528;28;849;-76
2022/02/23 00:33:36;;;;;;;;;;;;;;;;;;351411;28;1042;-76
2022/02/23 00:33:46;;;;;;;;;;;;;;;;;;349023;28;1885;-76
2022/02/23 00:33:56;;;;;;;;;;;;;;;;;;348678;28;999;-76
2022/02/23 00:34:06;;;;;;;;;;;;;;;;;;348689;28;968;-76
2022/02/23 00:34:17;;;;;;;;;;;;;;;;;;348643;28;1632;-76
2022/02/23 00:34:27;;;;;;;;;;;;;;;;;;348709;28;1843;-76
2022/02/23 00:34:37;;;;;;;;;;;;;;;;;;348698;28;845;-76
2022/02/23 00:34:48;;;;;;;;;;;;;;;;;;348597;28;1644;-77
2022/02/23 00:34:58;;;;;;;;;;;;;;;;;;348694;28;842;-76
2022/02/23 00:35:08;;;;;;;;;;;;;;;;;;348660;28;933;-76
2022/02/23 00:35:18;;;;;;;;;;;;;;;;;;348705;28;845;-76
2022/02/23 00:35:29;;;;;;;;;;;;;;;;;;348731;28;948;-76
2022/02/23 00:35:39;;;;;;;;;;;;;;;;;;348699;28;869;-76
2022/02/23 00:35:49;;;;;;;;;;;;;;;;;;348670;28;806;-76
2022/02/23 00:35:59;;;;;;;;;;;;;;;;;;348707;28;1090;-77
2022/02/23 00:36:10;;;;;;;;;;;;;;;;;;348636;28;914;-76
2022/02/23 00:36:20;;;;;;;;;;;;;;;;;;348693;28;925;-76
2022/02/23 00:36:30;;;;;;;;;;;;;;;;;;348993;28;1416;-76
2022/02/23 00:36:41;;;;;;;;;;;;;;;;;;348649;28;991;-76
2022/02/23 00:36:51;;;;;;;;;;;;;;;;;;348601;28;806;-76
2022/02/23 00:37:01;;;;;;;;;;;;;;;;;;348696;28;929;-76
2022/02/23 00:37:12;;;;;;;;;;;;;;;;;;348631;28;1004;-76
2022/02/23 00:37:22;;;;;;;;;;;;;;;;;;348687;28;937;-76
2022/02/23 00:37:32;;;;;;;;;;;;;;;;;;348721;28;829;-76
2022/02/23 00:37:43;;;;;;;;;;;;;;;;;;348629;28;984;-76
2022/02/23 00:37:53;;;;;;;;;;;;;;;;;;348724;28;893;-76
2022/02/23 00:38:03;;;;;;;;;;;;;;;;;;348673;28;1062;-76
2022/02/23 00:38:14;;;;;;;;;;;;;;;;;;348657;28;929;-76
2022/02/23 00:38:24;;;;;;;;;;;;;;;;;;348752;28;953;-76
2022/02/23 00:38:34;;;;;;;;;;;;;;;;;;348992;28;1412;-76
2022/02/23 00:38:44;;;;;;;;;;;;;;;;;;351461;28;1153;-76
2022/02/23 00:38:54;;;;;;;;;;;;;;;;;;349710;28;1689;-76
2022/02/23 00:39:05;;;;;;;;;;;;;;;;;;348665;28;905;-77
2022/02/23 00:39:15;;;;;;;;;;;;;;;;;;348636;28;917;-76
2022/02/23 00:39:25;;;;;;;;;;;;;;;;;;348663;28;1004;-76
2022/02/23 00:39:35;;;;;;;;;;;;;;;;;;348689;28;912;-76
2022/02/23 00:39:46;;;;;;;;;;;;;;;;;;348633;28;968;-76
2022/02/23 00:39:56;;;;;;;;;;;;;;;;;;348674;28;1128;-76
2022/02/23 00:40:06;;;;;;;;;;;;;;;;;;348711;28;790;-76
2022/02/23 00:40:17;;;;;;;;;;;;;;;;;;348673;28;925;-76
2022/02/23 00:40:27;;;;;;;;;;;;;;;;;;348674;28;1174;-76
2022/02/23 00:40:37;;;;;;;;;;;;;;;;;;348644;28;953;-76
2022/02/23 00:40:48;;;;;;;;;;;;;;;;;;348648;28;1127;-76
2022/02/23 00:40:58;;;;;;;;;;;;;;;;;;348637;28;920;-76
2022/02/23 00:41:08;;;;;;;;;;;;;;;;;;348672;28;945;-76
2022/02/23 00:41:19;;;;;;;;;;;;;;;;;;348622;28;913;-76
2022/02/23 00:41:30;;;;;;;;;;;;;;;;;;348698;28;1000;-76
2022/02/23 00:41:40;;;;;;;;;;;;;;;;;;348665;28;929;-76
2022/02/23 00:41:51;;;;;;;;;;;;;;;;;;348666;28;925;-76
2022/02/23 00:42:01;;;;;;;;;;;;;;;;;;348577;28;1743;-76
2022/02/23 00:42:11;;;;;;;;;;;;;;;;;;348667;28;944;-76
2022/02/23 00:42:21;;;;;;;;;;;;;;;;;;348663;28;903;-76
2022/02/23 00:42:32;;;;;;;;;;;;;;;;;;348708;28;810;-76
2022/02/23 00:42:42;;;;;;;;;;;;;;;;;;348600;28;788;-76
2022/02/23 00:42:56;;;;;;;;;;;;;;;;;;348626;28;1573;-76
2022/02/23 00:43:07;;;;;;;;;;;;;;;;;;348620;28;1679;-76
2022/02/23 00:43:17;;;;;;;;;;;;;;;;;;348652;28;729;-76
2022/02/23 00:43:27;;;;;;;;;;;;;;;;;;348644;28;869;-76
2022/02/23 00:43:38;;;;;;;;;;;;;;;;;;348697;28;901;-76
2022/02/23 00:43:48;;;;;;;;;;;;;;;;;;348682;28;814;-76
2022/02/23 00:43:58;;;;;;;;;;;;;;;;;;348759;28;944;-76
2022/02/23 00:44:09;;;;;;;;;;;;;;;;;;348629;28;905;-76
2022/02/23 00:44:19;;;;;;;;;;;;;;;;;;348715;28;782;-76
2022/02/23 00:44:29;;;;;;;;;;;;;;;;;;348703;28;769;-76
2022/02/23 00:44:39;;;;;;;;;;;;;;;;;;348682;28;949;-76
2022/02/23 00:44:49;;;;;;;;;;;;;;;;;;348699;28;929;-76
2022/02/23 00:45:00;;;;;;;;;;;;;;;;;;348625;28;906;-76
2022/02/23 00:45:10;;;;;;;;;;;;;;;;;;348604;28;1647;-76
2022/02/23 00:45:20;;;;;;;;;;;;;;;;;;348644;28;888;-76
2022/02/23 00:45:30;;;;;;;;;;;;;;;;;;348688;28;806;-76
2022/02/23 00:45:41;;;;;;;;;;;;;;;;;;348646;28;826;-76
2022/02/23 00:45:51;;;;;;;;;;;;;;;;;;348632;28;920;-76
2022/02/23 00:46:01;;;;;;;;;;;;;;;;;;348668;28;928;-76
2022/02/23 00:46:11;;;;;;;;;;;;;;;;;;348706;28;964;-76
2022/02/23 00:46:22;;;;;;;;;;;;;;;;;;348647;28;904;-76
2022/02/23 00:46:32;;;;;;;;;;;;;;;;;;348710;28;925;-76
2022/02/23 00:46:43;;;;;;;;;;;;;;;;;;348558;28;1671;-77
2022/02/23 00:46:53;;;;;;;;;;;;;;;;;;349069;28;1511;-76
2022/02/23 00:47:03;;;;;;;;;;;;;;;;;;350083;28;1332;-76
2022/02/23 00:47:14;;;;;;;;;;;;;;;;;;350011;28;1015;-76
2022/02/23 00:47:24;;;;;;;;;;;;;;;;;;350017;28;908;-76
2022/02/23 00:47:35;;;;;;;;;;;;;;;;;;350079;28;960;-76
2022/02/23 00:47:45;;;;;;;;;;;;;;;;;;350071;28;877;-76
2022/02/23 00:47:56;;;;;;;;;;;;;;;;;;350008;28;960;-76
2022/02/23 00:48:06;;;;;;;;;;;;;;;;;;350039;28;1003;-76
2022/02/23 00:48:16;;;;;;;;;;;;;;;;;;349883;28;1297;-76
2022/02/23 00:48:26;;;;;;;;;;;;;;;;;;350032;28;865;-76
2022/02/23 00:48:37;;;;;;;;;;;;;;;;;;350034;28;913;-76
2022/02/23 00:48:47;;;;;;;;;;;;;;;;;;350067;28;948;-76
2022/02/23 00:48:57;;;;;;;;;;;;;;;;;;348694;28;1644;-76
2022/02/23 00:49:08;;;;;;;;;;;;;;;;;;348679;28;900;-76
2022/02/23 00:49:18;;;;;;;;;;;;;;;;;;348644;28;925;-76
2022/02/23 00:49:28;;;;;;;;;;;;;;;;;;348636;28;980;-76
2022/02/23 00:49:38;;;;;;;;;;;;;;;;;;348659;28;1121;-76
2022/02/23 00:49:49;;;;;;;;;;;;;;;;;;348629;28;988;-76
2022/02/23 00:49:59;;;;;;;;;;;;;;;;;;348704;28;874;-76
2022/02/23 00:50:09;;;;;;;;;;;;;;;;;;348658;28;1193;-76
2022/02/23 00:50:19;;;;;;;;;;;;;;;;;;348673;28;996;-76
2022/02/23 00:50:30;;;;;;;;;;;;;;;;;;348714;28;1072;-76
2022/02/23 00:50:40;;;;;;;;;;;;;;;;;;348610;28;1092;-76
2022/02/23 00:50:51;;;;;;;;;;;;;;;;;;348678;28;1004;-76
2022/02/23 00:51:01;;;;;;;;;;;;;;;;;;348603;28;1902;-76
2022/02/23 00:51:12;;;;;;;;;;;;;;;;;;348668;28;929;-76
2022/02/23 00:51:22;;;;;;;;;;;;;;;;;;348632;28;976;-76
2022/02/23 00:51:32;;;;;;;;;;;;;;;;;;348577;28;1749;-76
2022/02/23 00:51:42;;;;;;;;;;;;;;;;;;348641;28;908;-76
2022/02/23 00:51:53;;;;;;;;;;;;;;;;;;348637;28;870;-75
2022/02/23 00:52:06;;;;;;;;;;;;;;;;;;348683;28;896;-76
2022/02/23 00:52:16;;;;;;;;;;;;;;;;;;348669;28;803;-76
2022/02/23 00:52:26;;;;;;;;;;;;;;;;;;348744;28;924;-76
2022/02/23 00:52:37;;;;;;;;;;;;;;;;;;348683;28;928;-76
2022/02/23 00:52:47;;;;;;;;;;;;;;;;;;348681;28;929;-76
2022/02/23 00:52:57;;;;;;;;;;;;;;;;;;348624;28;1143;-76
2022/02/23 00:53:08;;;;;;;;;;;;;;;;;;348476;28;988;-76
2022/02/23 00:53:18;;;;;;;;;;;;;;;;;;348557;28;1012;-76
2022/02/23 00:53:28;;;;;;;;;;;;;;;;;;348649;28;957;-76
2022/02/23 00:53:38;;;;;;;;;;;;;;;;;;348647;28;897;-77
2022/02/23 00:53:48;;;;;;;;;;;;;;;;;;348582;28;1590;-76
2022/02/23 00:53:59;;;;;;;;;;;;;;;;;;348609;28;1788;-76
2022/02/23 00:54:09;;;;;;;;;;;;;;;;;;349980;28;1428;-76
2022/02/23 00:54:20;;;;;;;;;;;;;;;;;;350055;28;853;-76
2022/02/23 00:54:30;;;;;;;;;;;;;;;;;;350055;28;826;-76
2022/02/23 00:54:40;;;;;;;;;;;;;;;;;;350051;28;818;-76
2022/02/23 00:54:50;;;;;;;;;;;;;;;;;;350005;28;940;-76
2022/02/23 00:55:01;;;;;;;;;;;;;;;;;;350073;28;810;-77
2022/02/23 00:55:11;;;;;;;;;;;;;;;;;;350049;28;798;-77
2022/02/23 00:55:21;;;;;;;;;;;;;;;;;;350043;28;984;-77
2022/02/23 00:55:31;;;;;;;;;;;;;;;;;;350025;28;932;-76
2022/02/23 00:55:41;;;;;;;;;;;;;;;;;;349973;28;1734;-76
2022/02/23 00:55:52;;;;;;;;;;;;;;;;;;350022;28;916;-76
2022/02/23 00:56:02;;;;;;;;;;;;;;;;;;350035;28;913;-76
2022/02/23 00:56:12;;;;;;;;;;;;;;;;;;350034;28;865;-76
2022/02/23 00:56:23;;;;;;;;;;;;;;;;;;350058;28;976;-76
2022/02/23 00:56:33;;;;;;;;;;;;;;;;;;348799;28;1659;-76
2022/02/23 00:56:46;;;;;;;;;;;;;;;;;;348598;28;977;-76
2022/02/23 00:56:57;;;;;;;;;;;;;;;;;;348614;28;1962;-76
2022/02/23 00:57:07;;;;;;;;;;;;;;;;;;348636;28;849;-76
2022/02/23 00:57:17;;;;;;;;;;;;;;;;;;348596;28;976;-76
2022/02/23 00:57:27;;;;;;;;;;;;;;;;;;348643;28;900;-76
2022/02/23 00:57:38;;;;;;;;;;;;;;;;;;348605;28;910;-76
2022/02/23 00:57:48;;;;;;;;;;;;;;;;;;348670;28;917;-76
2022/02/23 00:57:58;;;;;;;;;;;;;;;;;;348662;28;941;-76
2022/02/23 00:58:08;;;;;;;;;;;;;;;;;;348662;28;894;-76
2022/02/23 00:58:18;;;;;;;;;;;;;;;;;;348558;28;1069;-76
2022/02/23 00:58:29;;;;;;;;;;;;;;;;;;348688;28;980;-76
2022/02/23 00:58:39;;;;;;;;;;;;;;;;;;348524;28;1375;-76
2022/02/23 00:58:49;;;;;;;;;;;;;;;;;;348621;28;1647;-76
2022/02/23 00:59:00;;;;;;;;;;;;;;;;;;348699;28;928;-76
2022/02/23 00:59:10;;;;;;;;;;;;;;;;;;348632;28;845;-76
2022/02/23 00:59:20;;;;;;;;;;;;;;;;;;348592;28;1004;-76
2022/02/23 00:59:30;;;;;;;;;;;;;;;;;;348670;28;988;-76
2022/02/23 00:59:44;;;;;;;;;;;;;;;;;;348642;28;782;-76
2022/02/23 00:59:55;;;;;;;;;;;;;;;;;;348691;28;944;-76
2022/02/23 01:00:06;;;;;;;;;;;;;;;;;;348537;28;957;-76
2022/02/23 01:00:16;;;;;;;;;;;;;;;;;;348608;28;984;-76
2022/02/23 01:00:26;;;;;;;;;;;;;;;;;;348676;28;921;-76
2022/02/23 01:00:36;;;;;;;;;;;;;;;;;;348673;28;948;-76
2022/02/23 01:00:47;;;;;;;;;;;;;;;;;;348649;28;1645;-76
2022/02/23 01:00:57;;;;;;;;;;;;;;;;;;348639;28;1721;-76
2022/02/23 01:01:07;;;;;;;;;;;;;;;;;;348694;28;774;-76
2022/02/23 01:01:17;;;;;;;;;;;;;;;;;;348622;28;976;-76
2022/02/23 01:01:28;;;;;;;;;;;;;;;;;;348650;28;861;-76
2022/02/23 01:01:38;;;;;;;;;;;;;;;;;;348641;28;932;-76
2022/02/23 01:01:49;;;;;;;;;;;;;;;;;;348598;28;984;-77
2022/02/23 01:01:59;;;;;;;;;;;;;;;;;;348654;28;984;-76
2022/02/23 01:02:09;;;;;;;;;;;;;;;;;;348598;28;985;-76
2022/02/23 01:02:20;;;;;;;;;;;;;;;;;;348600;28;937;-76
2022/02/23 01:02:30;;;;;;;;;;;;;;;;;;348661;28;797;-76
2022/02/23 01:02:40;;;;;;;;;;;;;;;;;;348665;28;806;-76
2022/02/23 01:02:51;;;;;;;;;;;;;;;;;;348595;28;976;-76
2022/02/23 01:03:01;;;;;;;;;;;;;;;;;;348660;28;1000;-76
2022/02/23 01:03:11;;;;;;;;;;;;;;;;;;348677;28;862;-76
2022/02/23 01:03:21;;;;;;;;;;;;;;;;;;348607;28;1035;-76
2022/02/23 01:03:32;;;;;;;;;;;;;;;;;;348562;28;929;-76
2022/02/23 01:03:42;;;;;;;;;;;;;;;;;;348687;28;798;-76
2022/02/23 01:03:52;;;;;;;;;;;;;;;;;;348548;28;1635;-76
2022/02/23 01:04:02;;;;;;;;;;;;;;;;;;348571;28;1863;-76
2022/02/23 01:04:13;;;;;;;;;;;;;;;;;;348602;28;917;-77
2022/02/23 01:04:23;;;;;;;;;;;;;;;;;;348645;28;975;-76
2022/02/23 01:04:33;;;;;;;;;;;;;;;;;;348633;28;1016;-76
2022/02/23 01:04:43;;;;;;;;;;;;;;;;;;348633;28;902;-76
2022/02/23 01:04:54;;;;;;;;;;;;;;;;;;348613;28;989;-76
2022/02/23 01:05:04;;;;;;;;;;;;;;;;;;348661;28;779;-76
2022/02/23 01:05:14;;;;;;;;;;;;;;;;;;348581;28;991;-76
2022/02/23 01:05:25;;;;;;;;;;;;;;;;;;348605;28;965;-76
2022/02/23 01:05:35;;;;;;;;;;;;;;;;;;348635;28;921;-76
2022/02/23 01:05:46;;;;;;;;;;;;;;;;;;348649;28;869;-76
2022/02/23 01:05:56;;;;;;;;;;;;;;;;;;348656;28;941;-76
2022/02/23 01:06:06;;;;;;;;;;;;;;;;;;350136;28;1499;-76
2022/02/23 01:06:16;;;;;;;;;;;;;;;;;;350006;28;967;-76
2022/02/23 01:06:27;;;;;;;;;;;;;;;;;;350007;28;932;-76
2022/02/23 01:06:37;;;;;;;;;;;;;;;;;;350045;28;810;-76
2022/02/23 01:06:47;;;;;;;;;;;;;;;;;;348602;28;1655;-76
2022/02/23 01:06:57;;;;;;;;;;;;;;;;;;348610;28;810;-76
2022/02/23 01:07:10;;;;;;;;;;;;;;;;;;348633;28;987;-76
2022/02/23 01:07:21;;;;;;;;;;;;;;;;;;348621;28;929;-76
2022/02/23 01:07:31;;;;;;;;;;;;;;;;;;348626;28;913;-76
2022/02/23 01:07:42;;;;;;;;;;;;;;;;;;348624;28;873;-76
2022/02/23 01:07:52;;;;;;;;;;;;;;;;;;348636;28;961;-76
2022/02/23 01:08:02;;;;;;;;;;;;;;;;;;348606;28;920;-76
2022/02/23 01:08:13;;;;;;;;;;;;;;;;;;348494;28;1616;-76
2022/02/23 01:08:23;;;;;;;;;;;;;;;;;;348610;28;905;-76
2022/02/23 01:08:33;;;;;;;;;;;;;;;;;;348637;28;901;-77
2022/02/23 01:08:44;;;;;;;;;;;;;;;;;;348619;28;917;-76
2022/02/23 01:08:54;;;;;;;;;;;;;;;;;;348641;28;909;-76
2022/02/23 01:09:04;;;;;;;;;;;;;;;;;;348600;28;857;-76
2022/02/23 01:09:14;;;;;;;;;;;;;;;;;;348671;28;870;-76
2022/02/23 01:09:25;;;;;;;;;;;;;;;;;;348629;28;1015;-77
2022/02/23 01:09:35;;;;;;;;;;;;;;;;;;348629;28;972;-76
2022/02/23 01:09:46;;;;;;;;;;;;;;;;;;348662;28;785;-76
2022/02/23 01:09:57;;;;;;;;;;;;;;;;;;348634;28;995;-76
2022/02/23 01:10:09;;;;;;;;;;;;;;;;;;348528;28;1699;-76
2022/02/23 01:10:19;;;;;;;;;;;;;;;;;;348601;28;892;-76
2022/02/23 01:10:30;;;;;;;;;;;;;;;;;;348576;28;949;-76
2022/02/23 01:10:40;;;;;;;;;;;;;;;;;;348668;28;862;-76
2022/02/23 01:10:50;;;;;;;;;;;;;;;;;;348606;28;795;-76
2022/02/23 01:11:01;;;;;;;;;;;;;;;;;;348628;28;1914;-76
2022/02/23 01:11:11;;;;;;;;;;;;;;;;;;348655;28;908;-76
2022/02/23 01:11:22;;;;;;;;;;;;;;;;;;348543;28;980;-77
2022/02/23 01:11:33;;;;;;;;;;;;;;;;;;348618;28;775;-77
2022/02/23 01:11:44;;;;;;;;;;;;;;;;;;348606;28;1048;-76
2022/02/23 01:11:54;;;;;;;;;;;;;;;;;;348648;28;1646;-76
2022/02/23 01:12:04;;;;;;;;;;;;;;;;;;348684;28;893;-76
2022/02/23 01:12:15;;;;;;;;;;;;;;;;;;348527;28;1632;-76
2022/02/23 01:12:25;;;;;;;;;;;;;;;;;;348624;28;806;-76
2022/02/23 01:12:36;;;;;;;;;;;;;;;;;;348640;28;979;-76
2022/02/23 01:12:47;;;;;;;;;;;;;;;;;;348654;28;929;-76
2022/02/23 01:12:58;;;;;;;;;;;;;;;;;;348647;28;902;-76
2022/02/23 01:13:08;;;;;;;;;;;;;;;;;;348646;28;925;-76
2022/02/23 01:13:18;;;;;;;;;;;;;;;;;;348631;28;957;-76
2022/02/23 01:13:29;;;;;;;;;;;;;;;;;;348632;28;880;-76
2022/02/23 01:13:39;;;;;;;;;;;;;;;;;;348633;28;852;-76
2022/02/23 01:13:50;;;;;;;;;;;;;;;;;;348652;28;914;-77
2022/02/23 01:14:00;;;;;;;;;;;;;;;;;;348579;28;996;-76
2022/02/23 01:14:11;;;;;;;;;;;;;;;;;;348554;28;1707;-76
2022/02/23 01:14:21;;;;;;;;;;;;;;;;;;348571;28;984;-76
2022/02/23 01:14:32;;;;;;;;;;;;;;;;;;348605;28;992;-76